Time,TemperatureF,DewpointF,PressureIn,WindDirection,WindDirectionDegrees,WindSpeedMPH,WindSpeedGustMPH,Humidity,HourlyPrecipIn,Conditions,Clouds,dailyrainin,SoftwareType,DateUTC
2013-06-01 00:01:00,57.0,46.0,-100.00,North,-999,-999.0,-999.0,68,0.00,,,-99.99,,2013-06-01 07:01:00,
2013-06-01 00:11:00,57.0,46.0,-100.00,North,-999,-999.0,-999.0,68,0.00,,,-99.99,,2013-06-01 07:11:00,
2013-06-01 00:21:00,57.0,46.0,-100.00,North,-999,-999.0,-999.0,68,0.00,,,-99.99,,2013-06-01 07:21:00,
2013-06-01 00:31:00,57.0,46.0,-100.00,North,-999,-999.0,-999.0,68,0.00,,,-99.99,,2013-06-01 07:31:00,
2013-06-01 00:42:00,57.0,46.0,-100.00,North,-999,-999.0,-999.0,68,0.00,,,-99.99,,2013-06-01 07:42:00,
2013-06-01 01:02:00,56.0,46.0,-100.00,North,-999,-999.0,-999.0,69,0.00,,,-99.99,,2013-06-01 08:02:00,
2013-06-01 01:11:00,56.0,46.0,-100.00,North,-999,-999.0,-999.0,69,0.00,,,-99.99,,2013-06-01 08:11:00,
2013-06-01 01:21:00,56.0,46.0,-100.00,North,-999,-999.0,-999.0,69,0.00,,,-99.99,,2013-06-01 08:21:00,
2013-06-01 01:32:00,56.0,46.0,-100.00,North,-999,-999.0,-999.0,69,0.00,,,-99.99,,2013-06-01 08:32:00,
2013-06-01 01:42:00,56.0,46.0,-100.00,North,-999,-999.0,-999.0,69,0.00,,,-99.99,,2013-06-01 08:42:00,
2013-06-01 01:43:00,55.0,-99.9,-100.00,North,-999,-999.0,-999.0,-999,-99.99,,,-99.99,,2013-06-01 08:43:00,
2013-06-01 02:02:00,55.0,-99.9,-100.00,North,-999,-999.0,-999.0,-999,-99.99,,,-99.99,,2013-06-01 09:02:00,
2013-06-01 02:12:00,55.0,-99.9,-100.00,North,-999,-999.0,-999.0,-999,-99.99,,,-99.99,,2013-06-01 09:12:00,
2013-06-01 02:22:00,55.0,-99.9,-100.00,North,-999,-999.0,-999.0,-999,-99.99,,,-99.99,,2013-06-01 09:22:00,
2013-06-01 02:33:00,55.0,-99.9,-100.00,North,-999,-999.0,-999.0,-999,-99.99,,,-99.99,,2013-06-01 09:33:00,
2013-06-01 04:02:00,54.0,45.0,-100.00,North,-999,-999.0,-999.0,71,-99.99,,,-99.99,,2013-06-01 11:02:00,
2013-06-01 04:11:00,54.0,45.0,-100.00,North,-999,-999.0,-999.0,71,-99.99,,,-99.99,,2013-06-01 11:11:00,
2013-06-01 04:21:00,54.0,45.0,-100.00,North,-999,-999.0,-999.0,71,-99.99,,,-99.99,,2013-06-01 11:21:00,
2013-06-01 04:32:00,54.0,45.0,-100.00,North,-999,-999.0,-999.0,71,-99.99,,,-99.99,,2013-06-01 11:32:00,
2013-06-01 04:42:00,54.0,45.0,-100.00,North,-999,-999.0,-999.0,71,-99.99,,,-99.99,,2013-06-01 11:42:00,
2013-06-01 05:01:00,54.0,46.0,-100.00,North,-999,-999.0,-999.0,74,0.00,,,-99.99,,2013-06-01 12:01:00,
2013-06-01 05:12:00,54.0,46.0,-100.00,North,-999,-999.0,-999.0,74,0.00,,,-99.99,,2013-06-01 12:12:00,
2013-06-01 05:21:00,54.0,46.0,-100.00,North,-999,-999.0,-999.0,74,0.00,,,-99.99,,2013-06-01 12:21:00,
2013-06-01 05:32:00,54.0,46.0,-100.00,North,-999,-999.0,-999.0,74,0.00,,,-99.99,,2013-06-01 12:32:00,
2013-06-01 05:41:00,54.0,46.0,-100.00,North,-999,-999.0,-999.0,74,0.00,,,-99.99,,2013-06-01 12:41:00,
2013-06-01 06:01:00,54.0,45.0,-100.00,North,-999,-999.0,-999.0,73,0.00,,,-99.99,,2013-06-01 13:01:00,
2013-06-01 06:11:00,54.0,45.0,-100.00,North,-999,-999.0,-999.0,73,0.00,,,-99.99,,2013-06-01 13:11:00,
2013-06-01 06:22:00,54.0,45.0,-100.00,North,-999,-999.0,-999.0,73,0.00,,,-99.99,,2013-06-01 13:22:00,
2013-06-01 06:32:00,54.0,45.0,-100.00,North,-999,-999.0,-999.0,73,0.00,,,-99.99,,2013-06-01 13:32:00,
2013-06-01 06:42:00,54.0,45.0,-100.00,North,-999,-999.0,-999.0,73,0.00,,,-99.99,,2013-06-01 13:42:00,
2013-06-01 07:02:00,55.0,46.0,-100.00,North,-999,-999.0,-999.0,72,0.00,,,-99.99,,2013-06-01 14:02:00,
2013-06-01 07:11:00,55.0,46.0,-100.00,North,-999,-999.0,-999.0,72,0.00,,,-99.99,,2013-06-01 14:11:00,
2013-06-01 07:21:00,55.0,46.0,-100.00,North,-999,-999.0,-999.0,72,0.00,,,-99.99,,2013-06-01 14:21:00,
2013-06-01 07:32:00,55.0,46.0,-100.00,North,-999,-999.0,-999.0,72,0.00,,,-99.99,,2013-06-01 14:32:00,
2013-06-01 07:42:00,55.0,46.0,-100.00,North,-999,-999.0,-999.0,72,0.00,,,-99.99,,2013-06-01 14:42:00,
2013-06-01 07:43:00,57.0,47.0,-100.00,North,-999,-999.0,-999.0,68,0.00,,,-99.99,,2013-06-01 14:43:00,
2013-06-01 08:01:00,57.0,47.0,-100.00,North,-999,-999.0,-999.0,68,0.00,,,-99.99,,2013-06-01 15:01:00,
2013-06-01 08:11:00,57.0,47.0,-100.00,North,-999,-999.0,-999.0,68,0.00,,,-99.99,,2013-06-01 15:11:00,
2013-06-01 08:21:00,57.0,47.0,-100.00,North,-999,-999.0,-999.0,68,0.00,,,-99.99,,2013-06-01 15:21:00,
2013-06-01 08:33:00,57.0,47.0,-100.00,North,-999,-999.0,-999.0,68,0.00,,,-99.99,,2013-06-01 15:33:00,
2013-06-01 09:03:00,61.0,47.0,-100.00,North,-999,-999.0,-999.0,61,0.00,,,-99.99,,2013-06-01 16:03:00,
2013-06-01 09:12:00,61.0,47.0,-100.00,North,-999,-999.0,-999.0,61,0.00,,,-99.99,,2013-06-01 16:12:00,
2013-06-01 09:42:00,61.0,47.0,-100.00,North,-999,-999.0,-999.0,61,0.00,,,-99.99,,2013-06-01 16:42:00,
2013-06-01 10:02:00,67.0,46.0,-100.00,North,-999,-999.0,-999.0,46,0.00,,,0.00,,2013-06-01 17:02:00,
2013-06-01 11:01:00,72.0,48.0,-100.00,North,-999,-999.0,-999.0,43,-99.99,,,-99.99,,2013-06-01 18:01:00,
2013-06-01 12:01:00,71.0,47.0,-100.00,North,-999,-999.0,-999.0,42,-99.99,,,0.00,,2013-06-01 19:01:00,
2013-06-01 13:01:00,74.0,45.0,-100.00,North,-999,-999.0,-999.0,35,-99.99,,,0.00,,2013-06-01 20:01:00,
2013-06-01 14:01:00,72.0,47.0,-100.00,North,-999,-999.0,-999.0,40,-99.99,,,0.00,,2013-06-01 21:01:00,
2013-06-01 14:42:00,72.0,47.0,-100.00,North,-999,-999.0,-999.0,40,-99.99,,,0.00,,2013-06-01 21:42:00,
2013-06-01 15:03:00,68.0,48.0,-100.00,North,-999,-999.0,-999.0,49,-99.99,,,0.00,,2013-06-01 22:03:00,
2013-06-01 15:12:00,68.0,48.0,-100.00,North,-999,-999.0,-999.0,49,-99.99,,,0.00,,2013-06-01 22:12:00,
2013-06-01 15:23:00,68.0,48.0,-100.00,North,-999,-999.0,-999.0,49,-99.99,,,0.00,,2013-06-01 22:23:00,
2013-06-01 15:33:00,68.0,48.0,-100.00,North,-999,-999.0,-999.0,49,-99.99,,,0.00,,2013-06-01 22:33:00,
2013-06-01 15:42:00,68.0,48.0,-100.00,North,-999,-999.0,-999.0,49,-99.99,,,0.00,,2013-06-01 22:42:00,
2013-06-01 16:02:00,71.0,47.0,-100.00,North,-999,-999.0,-999.0,43,0.00,,,0.00,,2013-06-01 23:02:00,
2013-06-01 16:21:00,71.0,47.0,-100.00,North,-999,-999.0,-999.0,43,0.00,,,0.00,,2013-06-01 23:21:00,
2013-06-01 16:32:00,71.0,47.0,-100.00,North,-999,-999.0,-999.0,43,0.00,,,0.00,,2013-06-01 23:32:00,
2013-06-01 16:42:00,71.0,47.0,-100.00,North,-999,-999.0,-999.0,43,0.00,,,0.00,,2013-06-01 23:42:00,
2013-06-01 17:02:00,71.0,47.0,-100.00,North,-999,-999.0,-999.0,43,-99.99,,,0.00,,2013-06-02 00:02:00,
2013-06-01 18:01:00,74.0,47.0,-100.00,North,-999,-999.0,-999.0,38,-99.99,,,0.00,,2013-06-02 01:01:00,
2013-06-01 19:01:00,74.0,45.0,-100.00,North,-999,-999.0,-999.0,36,-99.99,,,0.00,,2013-06-02 02:01:00,
2013-06-01 19:43:00,65.0,46.0,-100.00,North,-999,-999.0,-999.0,51,-99.99,,,0.00,,2013-06-02 02:43:00,
2013-06-01 20:02:00,65.0,46.0,-100.00,North,-999,-999.0,-999.0,51,-99.99,,,0.00,,2013-06-02 03:02:00,
2013-06-01 20:11:00,65.0,46.0,-100.00,North,-999,-999.0,-999.0,51,-99.99,,,0.00,,2013-06-02 03:11:00,
2013-06-01 20:21:00,65.0,46.0,-100.00,North,-999,-999.0,-999.0,51,-99.99,,,0.00,,2013-06-02 03:21:00,
2013-06-01 20:33:00,65.0,46.0,-100.00,North,-999,-999.0,-999.0,51,-99.99,,,0.00,,2013-06-02 03:33:00,
2013-06-01 21:02:00,62.0,45.0,-100.00,North,-999,-999.0,-999.0,54,0.00,,,0.00,,2013-06-02 04:02:00,
2013-06-01 21:13:00,62.0,45.0,-100.00,North,-999,-999.0,-999.0,54,0.00,,,0.00,,2013-06-02 04:13:00,
2013-06-01 21:23:00,62.0,45.0,-100.00,North,-999,-999.0,-999.0,54,0.00,,,0.00,,2013-06-02 04:23:00,
2013-06-01 21:33:00,62.0,45.0,-100.00,North,-999,-999.0,-999.0,54,0.00,,,0.00,,2013-06-02 04:33:00,
2013-06-01 21:42:00,62.0,45.0,-100.00,North,-999,-999.0,-999.0,54,0.00,,,0.00,,2013-06-02 04:42:00,
2013-06-01 22:02:00,59.0,46.0,-100.00,North,-999,-999.0,-999.0,63,0.00,,,0.00,,2013-06-02 05:02:00,
2013-06-01 22:11:00,59.0,46.0,-100.00,North,-999,-999.0,-999.0,63,0.00,,,0.00,,2013-06-02 05:11:00,
2013-06-01 22:22:00,59.0,46.0,-100.00,North,-999,-999.0,-999.0,63,0.00,,,0.00,,2013-06-02 05:22:00,
2013-06-01 22:32:00,59.0,46.0,-100.00,North,-999,-999.0,-999.0,63,0.00,,,0.00,,2013-06-02 05:32:00,
2013-06-01 22:42:00,59.0,46.0,-100.00,North,-999,-999.0,-999.0,63,0.00,,,0.00,,2013-06-02 05:42:00,
2013-06-01 23:01:00,57.0,47.0,-100.00,North,-999,-999.0,-999.0,69,0.00,,,0.00,,2013-06-02 06:01:00,
2013-06-01 23:12:00,57.0,47.0,-100.00,North,-999,-999.0,-999.0,69,0.00,,,0.00,,2013-06-02 06:12:00,
2013-06-01 23:21:00,57.0,47.0,-100.00,North,-999,-999.0,-999.0,69,0.00,,,0.00,,2013-06-02 06:21:00,
2013-06-01 23:32:00,57.0,47.0,-100.00,North,-999,-999.0,-999.0,69,0.00,,,0.00,,2013-06-02 06:32:00,
2013-06-01 23:41:00,57.0,47.0,-100.00,North,-999,-999.0,-999.0,69,0.00,,,0.00,,2013-06-02 06:41:00,